createdAt,value
2018-07-20T00:01:44.008Z,55.40
2018-07-20T00:04:12.538Z,55.40
2018-07-20T00:09:09.665Z,55.40
2018-07-20T00:11:38.203Z,55.40
2018-07-20T00:16:34.978Z,55.50
2018-07-20T00:21:31.816Z,55.60
2018-07-20T00:28:56.728Z,55.80
2018-07-20T00:31:25.357Z,55.80
2018-07-20T00:33:53.881Z,55.90
2018-07-20T00:36:22.506Z,55.90
2018-07-20T00:38:51.027Z,55.90
2018-07-20T00:41:19.609Z,55.80
2018-07-20T00:43:48.123Z,55.90
2018-07-20T00:46:16.656Z,55.90
2018-07-20T00:48:45.219Z,55.90
2018-07-20T00:51:13.786Z,55.90
2018-07-20T00:53:42.325Z,55.90
2018-07-20T00:56:10.852Z,55.90
2018-07-20T00:58:39.405Z,56.00
2018-07-20T01:01:07.953Z,56.10
2018-07-20T01:03:36.518Z,56.10
2018-07-20T01:06:05.703Z,56.20
2018-07-20T01:08:34.242Z,56.20
2018-07-20T01:11:02.754Z,56.30
2018-07-20T01:13:31.509Z,56.30
2018-07-20T01:16:00.192Z,56.30
2018-07-20T01:18:28.841Z,56.30
2018-07-20T01:20:57.350Z,56.40
2018-07-20T01:23:25.882Z,56.40
2018-07-20T01:25:54.425Z,56.40
2018-07-20T01:28:22.996Z,56.50
2018-07-20T01:33:19.736Z,56.50
2018-07-20T01:35:48.239Z,56.60
2018-07-20T01:38:16.718Z,56.50
2018-07-20T01:40:45.183Z,56.50
2018-07-20T01:43:13.664Z,56.60
2018-07-20T01:45:42.144Z,56.60
2018-07-20T01:48:10.612Z,56.70
2018-07-20T01:50:39.107Z,56.80
2018-07-20T01:53:07.635Z,56.80
2018-07-20T01:55:36.150Z,56.80
2018-07-20T01:58:04.803Z,56.90
2018-07-20T02:00:33.318Z,56.90
2018-07-20T02:03:01.788Z,57.00
2018-07-20T02:07:58.487Z,57.60
2018-07-20T02:10:26.970Z,57.20
2018-07-20T02:12:55.436Z,57.40
2018-07-20T02:15:24.024Z,57.40
2018-07-20T02:20:20.670Z,57.40
2018-07-20T02:22:49.156Z,57.40
2018-07-20T02:25:17.628Z,57.40
2018-07-20T02:27:46.095Z,57.40
2018-07-20T02:30:14.609Z,57.40
2018-07-20T02:32:43.083Z,57.40
2018-07-20T02:35:11.522Z,57.40
2018-07-20T02:37:40.024Z,57.40
2018-07-20T02:40:08.476Z,57.40
2018-07-20T02:45:05.534Z,57.40
2018-07-20T02:47:34.072Z,57.40
2018-07-20T02:50:02.542Z,57.40
2018-07-20T02:52:31.056Z,57.30
2018-07-20T02:54:59.501Z,57.30
2018-07-20T02:57:27.993Z,57.30
2018-07-20T02:59:56.450Z,57.30
2018-07-20T03:02:24.936Z,57.30
2018-07-20T03:07:21.555Z,57.30
2018-07-20T03:09:50.054Z,57.30
2018-07-20T03:12:18.532Z,57.30
2018-07-20T03:14:47.033Z,57.20
2018-07-20T03:17:15.548Z,57.20
2018-07-20T03:19:44.043Z,57.50
2018-07-20T03:22:12.577Z,57.70
2018-07-20T03:24:41.006Z,57.70
2018-07-20T03:29:37.627Z,57.70
2018-07-20T03:32:06.689Z,57.70
2018-07-20T03:34:35.223Z,57.60
2018-07-20T03:39:32.008Z,57.70
2018-07-20T03:42:00.479Z,57.70
2018-07-20T03:44:28.987Z,57.70
2018-07-20T03:51:54.059Z,57.80
2018-07-20T03:54:22.642Z,57.80
2018-07-20T03:56:51.094Z,57.70
2018-07-20T03:59:19.630Z,57.90
2018-07-20T04:01:48.096Z,57.80
2018-07-20T04:04:16.631Z,57.80
2018-07-20T04:06:45.130Z,57.80
2018-07-20T04:09:13.629Z,57.80
2018-07-20T04:11:42.236Z,57.90
2018-07-20T04:14:10.936Z,58.00
2018-07-20T04:16:39.407Z,58.00
2018-07-20T04:24:04.860Z,57.90
2018-07-20T04:29:01.504Z,58.30
2018-07-20T04:31:30.003Z,57.70
2018-07-20T04:33:58.580Z,57.70
2018-07-20T04:36:27.130Z,57.90
2018-07-20T04:38:55.595Z,57.90
2018-07-20T04:41:24.133Z,57.90
2018-07-20T04:43:52.651Z,58.00
2018-07-20T04:46:21.163Z,58.10
2018-07-20T04:48:49.626Z,58.10
2018-07-20T04:51:18.165Z,58.20
2018-07-20T04:53:46.698Z,58.20
2018-07-20T04:56:15.175Z,58.10
2018-07-20T04:58:43.712Z,58.00
2018-07-20T05:01:12.212Z,58.00
2018-07-20T05:03:40.730Z,58.00
2018-07-20T05:06:09.196Z,58.00
2018-07-20T05:08:37.634Z,58.00
2018-07-20T05:11:06.161Z,58.00
2018-07-20T05:13:34.626Z,57.90
2018-07-20T05:16:03.192Z,57.90
2018-07-20T05:18:31.684Z,57.80
2018-07-20T05:21:00.177Z,57.80
2018-07-20T05:23:28.694Z,57.70
2018-07-20T05:25:57.183Z,57.60
2018-07-20T05:28:25.691Z,57.70
2018-07-20T05:30:54.203Z,57.70
2018-07-20T05:33:22.747Z,57.60
2018-07-20T05:35:51.246Z,57.80
2018-07-20T05:38:19.884Z,57.60
2018-07-20T05:40:48.730Z,57.70
2018-07-20T05:43:17.380Z,58.20
2018-07-20T05:45:46.076Z,57.60
2018-07-20T05:48:14.621Z,57.60
2018-07-20T05:50:43.163Z,57.60
2018-07-20T05:53:11.642Z,57.60
2018-07-20T05:55:40.131Z,57.50
2018-07-20T05:58:09.100Z,57.50
2018-07-20T06:00:37.654Z,57.60
2018-07-20T06:03:06.151Z,57.60
2018-07-20T06:05:34.684Z,57.50
2018-07-20T06:08:03.162Z,57.50
2018-07-20T06:10:31.636Z,57.50
2018-07-20T06:13:00.114Z,57.30
2018-07-20T06:15:28.638Z,57.30
2018-07-20T06:17:57.121Z,57.40
2018-07-20T06:20:25.648Z,57.20
2018-07-20T06:22:54.113Z,57.20
2018-07-20T06:25:22.675Z,57.20
2018-07-20T06:27:51.171Z,57.20
2018-07-20T06:30:19.662Z,57.20
2018-07-20T06:32:48.432Z,57.10
2018-07-20T06:35:17.006Z,57.10
2018-07-20T06:37:45.504Z,57.10
2018-07-20T06:40:13.991Z,57.00
2018-07-20T06:42:42.476Z,56.90
2018-07-20T06:45:11.010Z,56.80
2018-07-20T06:50:12.880Z,56.50
2018-07-20T06:55:09.539Z,56.50
2018-07-20T06:57:38.047Z,56.50
2018-07-20T07:00:07.294Z,56.30
2018-07-20T07:02:36.360Z,56.30
2018-07-20T07:05:05.248Z,56.40
2018-07-20T07:07:33.746Z,56.30
2018-07-20T07:10:02.190Z,56.10
2018-07-20T07:12:30.695Z,56.10
2018-07-20T07:17:27.444Z,56.00
2018-07-20T07:19:56.006Z,55.90
2018-07-20T07:22:24.507Z,55.90
2018-07-20T07:24:52.961Z,55.70
2018-07-20T07:27:21.426Z,55.70
2018-07-20T07:29:50.506Z,55.40
2018-07-20T07:32:19.611Z,55.40
2018-07-20T07:34:48.081Z,55.40
2018-07-20T07:37:16.558Z,55.30
2018-07-20T07:39:45.043Z,55.20
2018-07-20T07:42:13.585Z,55.60
2018-07-20T07:44:42.110Z,55.00
2018-07-20T07:47:10.905Z,55.00
2018-07-20T07:49:39.418Z,54.80
2018-07-20T07:52:08.074Z,54.70
2018-07-20T07:54:36.565Z,54.60
2018-07-20T07:57:05.220Z,54.40
2018-07-20T07:59:33.679Z,54.30
2018-07-20T08:02:02.230Z,54.20
2018-07-20T08:04:30.784Z,54.10
2018-07-20T08:06:59.350Z,54.00
2018-07-20T08:09:27.880Z,53.90
2018-07-20T08:11:56.387Z,53.70
2018-07-20T08:14:25.017Z,53.50
2018-07-20T08:16:53.542Z,53.50
2018-07-20T08:19:22.031Z,53.50
2018-07-20T08:21:50.536Z,53.60
2018-07-20T08:24:19.065Z,53.30
2018-07-20T08:26:47.522Z,53.20
2018-07-20T08:31:44.223Z,52.80
2018-07-20T08:34:12.728Z,52.70
2018-07-20T08:36:41.172Z,52.70
2018-07-20T08:39:10.650Z,52.60
2018-07-20T08:44:07.740Z,52.30
2018-07-20T08:46:36.255Z,52.30
2018-07-20T08:49:04.762Z,52.20
2018-07-20T08:51:33.222Z,52.10
2018-07-20T08:54:01.780Z,52.00
2018-07-20T08:56:30.189Z,51.90
2018-07-20T08:58:58.725Z,51.80
2018-07-20T09:01:27.287Z,51.50
2018-07-20T09:03:55.796Z,51.40
2018-07-20T09:06:24.251Z,51.20
2018-07-20T09:08:52.714Z,51.20
2018-07-20T09:11:21.238Z,51.00
2018-07-20T09:13:49.840Z,50.90
2018-07-20T09:16:18.511Z,50.80
2018-07-20T09:18:48.626Z,50.80
2018-07-20T09:21:17.142Z,50.60
2018-07-20T09:23:45.615Z,50.50
2018-07-20T09:26:14.100Z,50.40
2018-07-20T09:28:42.561Z,50.30
2018-07-20T09:31:11.053Z,50.70
2018-07-20T09:33:39.540Z,50.20
2018-07-20T09:36:08.113Z,50.10
2018-07-20T09:38:36.618Z,49.90
2018-07-20T09:41:05.102Z,49.70
2018-07-20T09:43:33.602Z,49.60
2018-07-20T09:46:02.112Z,49.50
2018-07-20T09:48:30.595Z,49.40
2018-07-20T09:50:59.099Z,49.30
2018-07-20T09:55:55.765Z,49.20
2018-07-20T09:58:24.264Z,49.10
2018-07-20T10:00:53.042Z,49.10
2018-07-20T10:05:50.746Z,49.00
2018-07-20T10:08:20.028Z,48.80
2018-07-20T10:13:17.539Z,48.70
2018-07-20T10:15:46.019Z,48.80
2018-07-20T10:18:14.995Z,48.80
2018-07-20T10:20:43.604Z,48.50
2018-07-20T10:23:12.110Z,48.40
2018-07-20T10:25:41.049Z,48.30
2018-07-20T10:28:09.515Z,48.30
2018-07-20T10:30:38.041Z,48.30
2018-07-20T10:33:06.609Z,48.20
2018-07-20T10:35:35.089Z,48.10
2018-07-20T10:38:03.599Z,47.90
2018-07-20T10:40:32.069Z,47.80
2018-07-20T10:43:00.615Z,47.70
2018-07-20T10:45:29.116Z,47.30
2018-07-20T10:47:57.646Z,47.20
2018-07-20T10:52:54.238Z,47.30
2018-07-20T10:55:22.746Z,47.30
2018-07-20T10:57:51.234Z,47.40
2018-07-20T11:00:19.737Z,47.40
2018-07-20T11:02:48.231Z,47.40
2018-07-20T11:05:17.042Z,47.30
2018-07-20T11:10:14.739Z,47.10
2018-07-20T11:15:11.460Z,47.00
2018-07-20T11:17:39.941Z,46.90
2018-07-20T11:20:08.519Z,46.80
2018-07-20T11:22:37.045Z,46.80
2018-07-20T11:25:05.568Z,46.70
2018-07-20T11:27:34.061Z,46.70
2018-07-20T11:30:03.526Z,46.60
2018-07-20T11:32:32.024Z,46.60
2018-07-20T11:35:00.527Z,46.40
2018-07-20T11:37:28.999Z,46.40
2018-07-20T11:39:57.494Z,46.30
2018-07-20T11:44:54.224Z,46.30
2018-07-20T11:47:22.750Z,46.20
2018-07-20T11:49:51.257Z,46.20
2018-07-20T11:52:19.734Z,46.10
2018-07-20T11:54:48.270Z,46.00
2018-07-20T11:57:16.786Z,46.00
2018-07-20T12:04:41.614Z,45.80
2018-07-20T12:07:10.110Z,45.80
2018-07-20T12:12:07.014Z,45.70
2018-07-20T12:14:35.594Z,45.60
2018-07-20T12:17:04.117Z,45.50
2018-07-20T12:19:32.576Z,45.40
2018-07-20T12:22:01.073Z,45.40
2018-07-20T12:24:29.530Z,45.40
2018-07-20T12:26:58.095Z,45.30
2018-07-20T12:29:26.629Z,45.20
2018-07-20T12:31:55.178Z,45.20
2018-07-20T12:36:51.999Z,45.20
2018-07-20T12:39:20.512Z,45.10
2018-07-20T12:44:17.295Z,45.00
2018-07-20T12:49:13.945Z,44.70
2018-07-20T12:51:42.411Z,44.70
2018-07-20T12:54:10.944Z,45.20
2018-07-20T12:56:39.489Z,44.70
2018-07-20T12:59:07.976Z,44.70
2018-07-20T13:01:36.489Z,44.60
2018-07-20T13:06:33.194Z,44.40
2018-07-20T13:09:01.687Z,44.30
2018-07-20T13:11:30.185Z,44.30
2018-07-20T13:13:58.803Z,44.20
2018-07-20T13:16:27.302Z,44.20
2018-07-20T13:21:24.008Z,44.00
2018-07-20T13:23:52.566Z,44.00
2018-07-20T13:26:21.062Z,44.00
2018-07-20T13:28:49.746Z,43.90
2018-07-20T13:31:18.364Z,43.90
2018-07-20T13:33:47.249Z,43.80
2018-07-20T13:36:15.779Z,43.70
2018-07-20T13:38:44.281Z,43.70
2018-07-20T13:41:12.806Z,43.50
2018-07-20T13:43:41.323Z,43.40
2018-07-20T13:46:09.767Z,43.40
2018-07-20T13:48:38.275Z,43.30
2018-07-20T13:51:06.850Z,43.30
2018-07-20T13:53:35.451Z,43.30
2018-07-20T13:56:04.053Z,43.20
2018-07-20T13:58:32.553Z,43.10
2018-07-20T14:01:01.040Z,43.10
2018-07-20T14:03:29.563Z,43.10
2018-07-20T14:05:58.113Z,43.10
2018-07-20T14:08:26.652Z,43.10
2018-07-20T14:10:55.186Z,43.10
2018-07-20T14:13:24.176Z,43.00
2018-07-20T14:15:52.690Z,42.90
2018-07-20T14:18:21.357Z,42.90
2018-07-20T14:20:49.858Z,42.90
2018-07-20T14:23:18.375Z,42.90
2018-07-20T14:25:46.925Z,42.80
2018-07-20T14:28:15.405Z,42.70
2018-07-20T14:30:44.241Z,42.60
2018-07-20T14:33:12.966Z,42.60
2018-07-20T14:35:41.456Z,42.50
2018-07-20T14:38:10.066Z,42.60
2018-07-20T14:40:38.548Z,42.50
2018-07-20T14:43:07.162Z,41.40
2018-07-20T14:45:35.618Z,41.70
2018-07-20T14:48:04.112Z,41.70
2018-07-20T14:50:32.864Z,41.80
2018-07-20T14:53:01.348Z,41.80
2018-07-20T14:55:29.858Z,41.50
2018-07-20T14:57:58.320Z,41.50
2018-07-20T15:00:26.934Z,41.50
2018-07-20T15:02:55.622Z,41.50
2018-07-20T15:05:24.106Z,41.50
2018-07-20T15:07:52.728Z,41.50
2018-07-20T15:12:49.503Z,41.50
2018-07-20T15:20:14.406Z,41.70
2018-07-20T15:22:42.923Z,41.70
2018-07-20T15:25:11.375Z,41.70
2018-07-20T15:27:39.940Z,41.70
2018-07-20T15:30:08.503Z,41.70
2018-07-20T15:32:37.004Z,41.60
2018-07-20T15:35:05.571Z,41.60
2018-07-20T15:37:34.026Z,41.60
2018-07-20T15:40:02.550Z,41.60
2018-07-20T15:42:31.134Z,41.60
2018-07-20T15:47:27.860Z,41.50
2018-07-20T15:49:56.389Z,42.10
2018-07-20T15:54:53.062Z,41.40
2018-07-20T15:57:21.575Z,41.40
2018-07-20T15:59:50.198Z,41.40
2018-07-20T16:02:18.594Z,41.30
2018-07-20T16:04:47.224Z,41.20
2018-07-20T16:07:15.697Z,41.30
2018-07-20T16:09:44.206Z,41.30
2018-07-20T16:12:12.744Z,41.30
2018-07-20T16:14:41.304Z,41.30
2018-07-20T16:17:09.860Z,41.90
2018-07-20T16:19:38.400Z,41.40
2018-07-20T16:22:07.004Z,41.50
2018-07-20T16:27:03.953Z,41.50
2018-07-20T16:29:32.513Z,41.60
2018-07-20T16:32:01.063Z,41.60
2018-07-20T16:34:29.944Z,41.70
2018-07-20T16:41:55.201Z,41.70
2018-07-20T16:46:51.945Z,41.70
2018-07-20T16:49:20.504Z,41.80
2018-07-20T16:51:48.978Z,41.80
2018-07-20T16:54:17.464Z,41.80
2018-07-20T16:56:45.942Z,41.70
2018-07-20T16:59:14.593Z,41.70
2018-07-20T17:04:11.286Z,41.80
2018-07-20T17:06:39.916Z,41.80
2018-07-20T17:09:09.911Z,41.70
2018-07-20T17:11:38.420Z,41.80
2018-07-20T17:14:07.045Z,41.80
2018-07-20T17:16:35.491Z,41.80
2018-07-20T17:19:04.235Z,41.90
2018-07-20T17:21:32.760Z,41.90
2018-07-20T17:24:01.256Z,41.90
2018-07-20T17:26:29.757Z,41.90
2018-07-20T17:28:58.326Z,41.90
2018-07-20T17:31:26.797Z,42.00
2018-07-20T17:33:55.440Z,42.00
2018-07-20T17:38:52.101Z,42.30
2018-07-20T17:41:20.556Z,42.00
2018-07-20T17:43:49.059Z,42.10
2018-07-20T17:46:17.556Z,42.00
2018-07-20T17:48:46.092Z,42.10
2018-07-20T17:51:14.545Z,42.10
2018-07-20T17:53:43.030Z,42.10
2018-07-20T17:58:39.703Z,42.10
2018-07-20T18:01:08.216Z,42.00
2018-07-20T18:03:36.688Z,42.00
2018-07-20T18:06:05.265Z,42.00
2018-07-20T18:08:33.741Z,42.00
2018-07-20T18:11:02.234Z,42.00
2018-07-20T18:13:30.737Z,42.70
2018-07-20T18:15:59.224Z,42.10
2018-07-20T18:18:27.738Z,42.20
2018-07-20T18:20:56.435Z,42.30
2018-07-20T18:25:53.158Z,42.70
2018-07-20T18:28:21.663Z,42.00
2018-07-20T18:30:50.828Z,42.70
2018-07-20T18:33:19.404Z,42.90
2018-07-20T18:35:47.982Z,42.90
2018-07-20T18:38:16.478Z,42.70
2018-07-20T18:40:45.008Z,43.00
2018-07-20T18:43:13.511Z,43.00
2018-07-20T18:45:41.974Z,43.10
2018-07-20T18:48:10.465Z,43.10
2018-07-20T18:50:38.971Z,43.30
2018-07-20T18:53:07.505Z,43.30
2018-07-20T18:58:04.420Z,43.50
2018-07-20T19:00:32.927Z,43.60
2018-07-20T19:03:01.425Z,43.60
2018-07-20T19:05:29.904Z,43.60
2018-07-20T19:07:58.696Z,43.70
2018-07-20T19:10:27.196Z,43.80
2018-07-20T19:12:55.691Z,43.80
2018-07-20T19:17:52.346Z,44.00
2018-07-20T19:22:49.105Z,44.10
2018-07-20T19:25:18.051Z,44.10
2018-07-20T19:27:46.562Z,44.30
2018-07-20T19:30:15.033Z,44.30
2018-07-20T19:32:43.617Z,44.30
2018-07-20T19:35:12.078Z,44.40
2018-07-20T19:37:40.686Z,44.40
2018-07-20T19:40:09.134Z,44.50
2018-07-20T19:45:05.807Z,44.60
2018-07-20T19:50:02.669Z,44.70
2018-07-20T19:54:59.387Z,44.90
2018-07-20T19:57:27.858Z,45.60
2018-07-20T19:59:56.379Z,45.10
2018-07-20T20:02:24.838Z,45.30
2018-07-20T20:04:53.322Z,45.30
2018-07-20T20:07:21.788Z,45.20
2018-07-20T20:09:50.299Z,45.20
2018-07-20T20:12:18.791Z,45.10
2018-07-20T20:14:47.312Z,45.10
2018-07-20T20:17:15.790Z,45.10
2018-07-20T20:19:44.331Z,45.10
2018-07-20T20:22:12.798Z,45.00
2018-07-20T20:24:41.347Z,45.00
2018-07-20T20:27:09.771Z,45.00
2018-07-20T20:29:38.274Z,45.00
2018-07-20T20:32:06.927Z,45.00
2018-07-20T20:37:03.657Z,45.00
2018-07-20T20:39:32.287Z,45.00
2018-07-20T20:42:00.766Z,44.90
2018-07-20T20:46:57.372Z,44.90
2018-07-20T20:49:25.917Z,44.80
2018-07-20T20:54:22.615Z,45.40
2018-07-20T20:56:51.085Z,45.60
2018-07-20T20:59:19.632Z,45.50
2018-07-20T21:01:48.082Z,45.50
2018-07-20T21:04:16.606Z,45.60
2018-07-20T21:06:44.998Z,45.70
2018-07-20T21:09:13.477Z,45.70
2018-07-20T21:11:42.039Z,45.80
2018-07-20T21:14:10.513Z,45.90
2018-07-20T21:16:38.987Z,45.80
2018-07-20T21:19:07.450Z,45.90
2018-07-20T21:21:36.199Z,46.00
2018-07-20T21:24:04.848Z,46.00
2018-07-20T21:26:33.476Z,46.00
2018-07-20T21:29:02.035Z,46.10
2018-07-20T21:31:30.530Z,46.00
2018-07-20T21:33:59.139Z,46.10
2018-07-20T21:36:27.633Z,46.10
2018-07-20T21:38:56.104Z,46.10
2018-07-20T21:41:24.622Z,46.20
2018-07-20T21:46:21.378Z,46.60
2018-07-20T21:48:49.877Z,46.20
2018-07-20T21:51:18.328Z,46.10
2018-07-20T21:53:46.826Z,46.20
2018-07-20T21:56:15.374Z,46.20
2018-07-20T21:58:43.887Z,46.20
2018-07-20T22:01:12.393Z,46.20
2018-07-20T22:03:40.882Z,46.30
2018-07-20T22:06:09.393Z,46.40
2018-07-20T22:08:37.926Z,46.40
2018-07-20T22:11:06.544Z,46.40
2018-07-20T22:13:35.057Z,46.40
2018-07-20T22:16:03.549Z,46.40
2018-07-20T22:18:32.029Z,46.50
2018-07-20T22:21:00.531Z,46.50
2018-07-20T22:23:29.124Z,46.40
2018-07-20T22:25:57.630Z,46.60
2018-07-20T22:28:26.120Z,46.60
2018-07-20T22:30:54.669Z,46.60
2018-07-20T22:33:23.475Z,46.60
2018-07-20T22:35:52.003Z,46.70
2018-07-20T22:38:20.545Z,46.80
2018-07-20T22:40:49.030Z,46.80
2018-07-20T22:43:17.486Z,46.90
2018-07-20T22:48:14.284Z,46.90
2018-07-20T22:50:42.832Z,46.90
2018-07-20T22:53:11.397Z,46.90
2018-07-20T22:55:39.884Z,47.00
2018-07-20T22:58:08.413Z,47.00
2018-07-20T23:00:37.163Z,47.00
2018-07-20T23:03:05.817Z,47.10
2018-07-20T23:05:34.402Z,47.20
2018-07-20T23:08:03.385Z,47.30
2018-07-20T23:10:32.002Z,47.30
2018-07-20T23:13:00.498Z,47.50
2018-07-20T23:15:29.084Z,47.50
2018-07-20T23:17:57.627Z,47.50
2018-07-20T23:20:26.208Z,47.50
2018-07-20T23:22:54.742Z,47.50
2018-07-20T23:25:23.391Z,47.50
2018-07-20T23:27:52.025Z,47.70
2018-07-20T23:30:20.534Z,47.80
2018-07-20T23:32:48.994Z,47.90
2018-07-20T23:35:17.439Z,47.60
2018-07-20T23:37:46.015Z,47.90
2018-07-20T23:42:42.799Z,48.00
2018-07-20T23:45:11.341Z,47.90
2018-07-20T23:47:39.943Z,47.90
2018-07-20T23:50:08.449Z,48.10
2018-07-20T23:52:36.989Z,48.10
2018-07-20T23:55:06.152Z,48.20
2018-07-20T23:57:34.751Z,48.20
